createdAt,value
2018-09-27T00:00:48.955Z,1.40
2018-09-27T00:01:48.968Z,1.60
2018-09-27T00:02:48.983Z,1.60
2018-09-27T00:03:49.012Z,1.50
2018-09-27T00:04:49.028Z,1.60
2018-09-27T00:05:49.047Z,1.70
2018-09-27T00:06:49.062Z,1.40
2018-09-27T00:07:49.088Z,1.70
2018-09-27T00:08:49.101Z,1.40
2018-09-27T00:09:49.127Z,1.70
2018-09-27T00:10:49.141Z,1.50
2018-09-27T00:11:49.167Z,1.50
2018-09-27T00:12:49.180Z,1.50
2018-09-27T00:13:49.205Z,1.50
2018-09-27T00:14:49.219Z,1.50
2018-09-27T00:15:49.245Z,1.60
2018-09-27T00:16:49.261Z,1.60
2018-09-27T00:17:49.284Z,1.50
2018-09-27T00:18:49.300Z,1.80
2018-09-27T00:19:49.326Z,1.80
2018-09-27T00:20:49.338Z,1.40
2018-09-27T00:21:49.377Z,1.60
2018-09-27T00:22:49.378Z,1.50
2018-09-27T00:23:49.403Z,1.40
2018-09-27T00:24:49.418Z,1.70
2018-09-27T00:25:49.442Z,1.50
2018-09-27T00:26:49.456Z,1.60
2018-09-27T00:27:49.481Z,1.60
2018-09-27T00:28:49.496Z,1.50
2018-09-27T00:29:49.522Z,1.50
2018-09-27T00:30:49.535Z,1.90
2018-09-27T00:31:49.561Z,1.50
2018-09-27T00:32:49.574Z,1.70
2018-09-27T00:33:49.603Z,1.90
2018-09-27T00:34:49.613Z,1.60
2018-09-27T00:35:49.640Z,1.90
2018-09-27T00:36:49.665Z,1.90
2018-09-27T00:37:49.678Z,1.40
2018-09-27T00:38:49.705Z,1.80
2018-09-27T00:39:49.719Z,1.80
2018-09-27T00:40:49.746Z,1.60
2018-09-27T00:41:49.758Z,1.70
2018-09-27T00:42:49.784Z,1.80
2018-09-27T00:43:49.798Z,1.80
2018-09-27T00:44:49.823Z,1.80
2018-09-27T00:45:49.837Z,1.60
2018-09-27T00:46:49.862Z,2.00
2018-09-27T00:47:49.877Z,1.70
2018-09-27T00:48:49.903Z,1.60
2018-09-27T00:49:49.915Z,1.80
2018-09-27T00:50:49.960Z,2.00
2018-09-27T00:51:49.956Z,1.50
2018-09-27T00:52:49.982Z,1.70
2018-09-27T00:53:49.994Z,1.60
2018-09-27T00:54:50.020Z,1.70
2018-09-27T00:55:50.039Z,1.90
2018-09-27T00:56:50.060Z,1.90
2018-09-27T00:57:50.086Z,1.80
2018-09-27T00:58:50.101Z,1.70
2018-09-27T00:59:50.125Z,1.40
2018-09-27T01:00:50.139Z,2.00
2018-09-27T01:01:50.164Z,2.20
2018-09-27T01:02:50.178Z,1.90
2018-09-27T01:03:50.208Z,1.60
2018-09-27T01:04:50.218Z,2.00
2018-09-27T01:05:50.243Z,1.80
2018-09-27T01:06:50.256Z,1.80
2018-09-27T01:07:50.282Z,2.20
2018-09-27T01:08:50.297Z,1.90
2018-09-27T01:09:50.322Z,1.80
2018-09-27T01:10:50.335Z,1.90
2018-09-27T01:11:50.361Z,2.00
2018-09-27T01:12:50.375Z,1.80
2018-09-27T01:13:50.402Z,2.00
2018-09-27T01:14:50.417Z,1.70
2018-09-27T01:15:50.441Z,1.70
2018-09-27T01:16:50.468Z,1.70
2018-09-27T01:17:50.487Z,1.80
2018-09-27T01:18:50.506Z,2.40
2018-09-27T01:19:50.524Z,2.10
2018-09-27T01:20:50.545Z,1.60
2018-09-27T01:21:50.560Z,1.80
2018-09-27T01:22:50.586Z,2.00
2018-09-27T01:23:50.598Z,1.70
2018-09-27T01:24:50.624Z,2.00
2018-09-27T01:25:50.638Z,1.90
2018-09-27T01:26:50.664Z,1.90
2018-09-27T01:27:50.676Z,1.90
2018-09-27T01:28:50.703Z,1.90
2018-09-27T01:29:50.717Z,1.70
2018-09-27T01:30:50.747Z,1.90
2018-09-27T01:31:50.757Z,1.60
2018-09-27T01:32:50.781Z,2.10
2018-09-27T01:33:50.820Z,2.10
2018-09-27T01:34:50.821Z,2.00
2018-09-27T01:35:50.847Z,1.90
2018-09-27T01:36:50.860Z,2.00
2018-09-27T01:37:50.886Z,1.60
2018-09-27T01:38:50.906Z,1.90
2018-09-27T01:39:50.927Z,2.10
2018-09-27T01:40:50.964Z,2.00
2018-09-27T01:41:50.966Z,2.00
2018-09-27T01:42:50.980Z,1.90
2018-09-27T01:43:51.019Z,2.40
2018-09-27T01:44:51.019Z,2.30
2018-09-27T01:45:51.044Z,2.30
2018-09-27T01:46:51.072Z,2.00
2018-09-27T01:47:51.088Z,2.00
2018-09-27T01:48:51.118Z,2.30
2018-09-27T01:49:51.124Z,2.30
2018-09-27T01:50:51.149Z,1.80
2018-09-27T01:51:51.163Z,2.20
2018-09-27T01:52:51.190Z,1.90
2018-09-27T01:53:51.203Z,2.00
2018-09-27T01:54:51.228Z,1.90
2018-09-27T01:55:51.244Z,2.40
2018-09-27T01:56:51.269Z,2.10
2018-09-27T01:57:51.283Z,2.00
2018-09-27T01:58:51.307Z,2.10
2018-09-27T01:59:51.322Z,2.40
2018-09-27T02:00:51.347Z,1.90
2018-09-27T02:01:51.361Z,2.00
2018-09-27T02:02:51.387Z,2.20
2018-09-27T02:03:51.412Z,2.40
2018-09-27T02:04:51.426Z,2.20
2018-09-27T02:05:51.452Z,2.30
2018-09-27T02:06:51.469Z,2.00
2018-09-27T02:07:51.490Z,2.20
2018-09-27T02:08:51.505Z,2.30
2018-09-27T02:09:51.531Z,2.10
2018-09-27T02:10:51.546Z,2.10
2018-09-27T02:11:51.572Z,2.50
2018-09-27T02:12:51.587Z,2.40
2018-09-27T02:13:51.610Z,2.40
2018-09-27T02:14:51.625Z,2.00
2018-09-27T02:15:51.650Z,2.40
2018-09-27T02:16:51.688Z,2.00
2018-09-27T02:17:51.690Z,2.20
2018-09-27T02:18:51.714Z,2.30
2018-09-27T02:19:51.727Z,2.30
2018-09-27T02:20:51.754Z,2.10
2018-09-27T02:21:51.773Z,2.40
2018-09-27T02:22:51.794Z,2.20
2018-09-27T02:23:51.807Z,2.20
2018-09-27T02:24:51.833Z,2.60
2018-09-27T02:25:51.849Z,2.10
2018-09-27T02:26:51.873Z,1.90
2018-09-27T02:27:51.886Z,2.70
2018-09-27T02:28:51.911Z,2.20
2018-09-27T02:29:51.939Z,2.30
2018-09-27T02:30:51.952Z,2.10
2018-09-27T02:31:51.978Z,2.30
2018-09-27T02:32:51.998Z,2.00
2018-09-27T02:33:52.017Z,2.40
2018-09-27T02:34:52.031Z,2.60
2018-09-27T02:35:52.057Z,2.30
2018-09-27T02:36:52.074Z,2.40
2018-09-27T02:37:52.095Z,2.40
2018-09-27T02:38:52.112Z,2.40
2018-09-27T02:39:52.135Z,2.40
2018-09-27T02:40:52.149Z,2.50
2018-09-27T02:41:52.178Z,2.30
2018-09-27T02:42:52.199Z,3.20
2018-09-27T02:43:52.214Z,2.40
2018-09-27T02:44:52.240Z,2.30
2018-09-27T02:45:52.255Z,2.80
2018-09-27T02:46:52.280Z,2.30
2018-09-27T02:47:52.293Z,2.80
2018-09-27T02:48:52.319Z,2.50
2018-09-27T02:49:52.333Z,2.30
2018-09-27T02:50:52.357Z,2.40
2018-09-27T02:51:52.372Z,2.40
2018-09-27T02:52:52.397Z,2.40
2018-09-27T02:53:52.411Z,2.40
2018-09-27T02:54:52.436Z,3.90
2018-09-27T02:55:52.461Z,2.50
2018-09-27T02:56:52.476Z,2.50
2018-09-27T02:57:52.502Z,2.80
2018-09-27T02:58:52.516Z,2.50
2018-09-27T02:59:52.543Z,2.60
2018-09-27T03:00:52.555Z,2.90
2018-09-27T03:01:52.582Z,2.60
2018-09-27T03:02:52.595Z,2.90
2018-09-27T03:03:52.619Z,2.90
2018-09-27T03:04:52.639Z,2.50
2018-09-27T03:05:52.661Z,2.70
2018-09-27T03:06:52.677Z,2.40
2018-09-27T03:07:52.701Z,2.50
2018-09-27T03:08:52.714Z,2.70
2018-09-27T03:09:52.739Z,2.80
2018-09-27T03:10:52.754Z,3.00
2018-09-27T03:11:52.782Z,2.90
2018-09-27T03:12:52.807Z,2.60
2018-09-27T03:13:52.856Z,2.60
2018-09-27T03:14:52.848Z,2.40
2018-09-27T03:15:52.857Z,2.80
2018-09-27T03:16:52.883Z,2.70
2018-09-27T03:17:52.897Z,2.40
2018-09-27T03:18:52.944Z,2.90
2018-09-27T03:19:52.935Z,2.10
2018-09-27T03:20:52.973Z,2.50
2018-09-27T03:21:52.977Z,2.60
2018-09-27T03:22:53.002Z,2.30
2018-09-27T03:23:53.016Z,2.90
2018-09-27T03:24:53.040Z,2.40
2018-09-27T03:25:53.072Z,2.30
2018-09-27T03:26:53.080Z,2.70
2018-09-27T03:27:53.107Z,2.90
2018-09-27T03:28:53.132Z,2.50
2018-09-27T03:29:53.145Z,2.70
2018-09-27T03:30:53.160Z,2.60
2018-09-27T03:31:53.186Z,2.30
2018-09-27T03:32:53.199Z,2.70
2018-09-27T03:33:53.227Z,2.70
2018-09-27T03:34:53.239Z,2.50
2018-09-27T03:35:53.265Z,2.50
2018-09-27T03:36:53.279Z,2.80
2018-09-27T03:37:53.304Z,2.50
2018-09-27T03:38:53.329Z,2.40
2018-09-27T03:39:53.433Z,2.60
2018-09-27T03:40:53.370Z,2.30
2018-09-27T03:41:53.383Z,2.20
2018-09-27T03:42:53.410Z,2.50
2018-09-27T03:43:53.423Z,2.20
2018-09-27T03:44:53.449Z,2.50
2018-09-27T03:45:53.461Z,2.50
2018-09-27T03:46:53.487Z,2.70
2018-09-27T03:47:53.501Z,2.50
2018-09-27T03:48:53.528Z,2.30
2018-09-27T03:49:53.554Z,2.50
2018-09-27T03:50:53.567Z,2.50
2018-09-27T03:51:53.593Z,2.80
2018-09-27T03:52:53.608Z,2.40
2018-09-27T03:53:53.633Z,2.60
2018-09-27T03:54:53.647Z,3.00
2018-09-27T03:55:53.672Z,2.70
2018-09-27T03:56:53.685Z,2.40
2018-09-27T03:57:53.711Z,2.60
2018-09-27T03:58:53.725Z,2.90
2018-09-27T03:59:53.750Z,2.50
2018-09-27T04:00:53.767Z,2.60
2018-09-27T04:01:53.789Z,2.80
2018-09-27T04:02:53.804Z,2.60
2018-09-27T04:03:53.830Z,2.60
2018-09-27T04:04:53.857Z,2.50
2018-09-27T04:05:53.869Z,2.80
2018-09-27T04:06:53.895Z,2.50
2018-09-27T04:07:53.908Z,2.50
2018-09-27T04:08:53.939Z,2.50
2018-09-27T04:09:53.948Z,2.80
2018-09-27T04:10:53.974Z,2.40
2018-09-27T04:11:53.998Z,2.80
2018-09-27T04:12:54.012Z,2.50
2018-09-27T04:13:54.043Z,2.60
2018-09-27T04:14:54.052Z,2.40
2018-09-27T04:15:54.101Z,2.50
2018-09-27T04:16:54.093Z,2.50
2018-09-27T04:17:54.118Z,2.60
2018-09-27T04:18:54.131Z,3.00
2018-09-27T04:19:54.157Z,3.00
2018-09-27T04:20:54.169Z,2.80
2018-09-27T04:21:54.276Z,2.70
2018-09-27T04:22:54.209Z,2.60
2018-09-27T04:23:54.249Z,2.90
2018-09-27T04:24:54.249Z,2.60
2018-09-27T04:25:54.287Z,2.30
2018-09-27T04:26:54.289Z,2.80
2018-09-27T04:27:54.331Z,2.80
2018-09-27T04:28:54.341Z,2.70
2018-09-27T04:29:54.353Z,3.10
2018-09-27T04:30:54.380Z,2.90
2018-09-27T04:31:54.393Z,2.90
2018-09-27T04:32:54.420Z,2.80
2018-09-27T04:33:54.497Z,2.80
2018-09-27T04:34:54.458Z,3.00
2018-09-27T04:35:54.473Z,2.90
2018-09-27T04:36:54.499Z,2.60
2018-09-27T04:37:54.513Z,2.60
2018-09-27T04:38:54.537Z,3.00
2018-09-27T04:39:54.573Z,2.90
2018-09-27T04:40:54.585Z,2.70
2018-09-27T04:41:54.591Z,2.60
2018-09-27T04:42:54.616Z,3.20
2018-09-27T04:43:54.641Z,2.60
2018-09-27T04:44:54.660Z,3.00
2018-09-27T04:45:54.711Z,3.00
2018-09-27T04:46:54.696Z,2.70
2018-09-27T04:47:54.734Z,3.20
2018-09-27T04:48:54.735Z,2.80
2018-09-27T04:49:54.762Z,2.70
2018-09-27T04:50:54.773Z,2.90
2018-09-27T04:51:54.874Z,2.90
2018-09-27T04:52:54.825Z,3.00
2018-09-27T04:53:54.846Z,2.90
2018-09-27T04:54:54.854Z,2.90
2018-09-27T04:55:54.879Z,3.10
2018-09-27T04:56:54.904Z,2.50
2018-09-27T04:57:54.920Z,2.90
2018-09-27T04:58:54.945Z,2.80
2018-09-27T04:59:54.971Z,2.80
2018-09-27T05:00:54.985Z,2.50
2018-09-27T05:01:54.997Z,2.90
2018-09-27T05:02:55.024Z,2.70
2018-09-27T05:03:55.117Z,2.80
2018-09-27T05:04:55.063Z,3.00
2018-09-27T05:05:55.077Z,3.10
2018-09-27T05:06:55.103Z,2.60
2018-09-27T05:07:55.119Z,2.80
2018-09-27T05:08:55.154Z,3.30
2018-09-27T05:09:55.167Z,2.80
2018-09-27T05:10:55.182Z,3.00
2018-09-27T05:11:55.208Z,2.90
2018-09-27T05:12:55.221Z,2.70
2018-09-27T05:13:55.248Z,2.80
2018-09-27T05:14:55.261Z,2.80
2018-09-27T05:15:55.330Z,2.90
2018-09-27T05:16:55.300Z,3.00
2018-09-27T05:17:55.329Z,2.80
2018-09-27T05:18:55.345Z,2.90
2018-09-27T05:19:55.367Z,2.90
2018-09-27T05:20:55.378Z,2.90
2018-09-27T05:21:55.405Z,2.90
2018-09-27T05:22:55.419Z,2.90
2018-09-27T05:23:55.445Z,2.90
2018-09-27T05:24:55.472Z,2.70
2018-09-27T05:25:55.485Z,2.90
2018-09-27T05:26:55.510Z,2.80
2018-09-27T05:27:55.528Z,3.10
2018-09-27T05:28:55.550Z,2.50
2018-09-27T05:29:55.562Z,3.00
2018-09-27T05:30:55.589Z,2.70
2018-09-27T05:31:55.605Z,2.90
2018-09-27T05:32:55.629Z,3.00
2018-09-27T05:33:55.643Z,2.90
2018-09-27T05:34:55.668Z,3.20
2018-09-27T05:35:55.693Z,3.10
2018-09-27T05:36:55.708Z,3.30
2018-09-27T05:37:55.733Z,3.10
2018-09-27T05:38:55.746Z,3.70
2018-09-27T05:39:55.774Z,2.60
2018-09-27T05:40:55.788Z,2.80
2018-09-27T05:41:55.818Z,2.70
2018-09-27T05:42:55.825Z,3.00
2018-09-27T05:43:55.855Z,2.70
2018-09-27T05:44:55.866Z,2.90
2018-09-27T05:45:55.894Z,3.00
2018-09-27T05:46:55.906Z,2.80
2018-09-27T05:47:55.931Z,2.90
2018-09-27T05:48:55.957Z,2.90
2018-09-27T05:49:56.034Z,2.80
2018-09-27T05:50:55.998Z,3.00
2018-09-27T05:51:56.015Z,3.20
2018-09-27T05:52:56.052Z,2.90
2018-09-27T05:53:56.050Z,2.90
2018-09-27T05:54:56.076Z,2.80
2018-09-27T05:55:56.125Z,3.40
2018-09-27T05:56:56.114Z,2.60
2018-09-27T05:57:56.142Z,2.80
2018-09-27T05:58:56.155Z,2.60
2018-09-27T05:59:56.181Z,3.20
2018-09-27T06:00:56.194Z,3.00
2018-09-27T06:01:56.269Z,2.70
2018-09-27T06:02:56.234Z,2.90
2018-09-27T06:03:56.260Z,2.90
2018-09-27T06:04:56.273Z,2.60
2018-09-27T06:05:56.300Z,3.00
2018-09-27T06:06:56.325Z,3.00
2018-09-27T06:07:56.339Z,2.80
2018-09-27T06:08:56.364Z,2.60
2018-09-27T06:09:56.379Z,3.00
2018-09-27T06:10:56.408Z,2.60
2018-09-27T06:11:56.417Z,3.20
2018-09-27T06:12:56.444Z,3.00
2018-09-27T06:13:56.470Z,3.00
2018-09-27T06:14:56.484Z,2.80
2018-09-27T06:15:56.508Z,3.10
2018-09-27T06:16:56.522Z,2.90
2018-09-27T06:17:56.548Z,3.10
2018-09-27T06:18:56.560Z,2.70
2018-09-27T06:19:56.888Z,3.00
2018-09-27T06:20:56.613Z,2.80
2018-09-27T06:21:56.627Z,2.40
2018-09-27T06:22:56.653Z,2.70
2018-09-27T06:23:56.666Z,2.90
2018-09-27T06:24:56.692Z,2.90
2018-09-27T06:25:56.751Z,2.80
2018-09-27T06:26:56.732Z,2.70
2018-09-27T06:27:56.758Z,2.70
2018-09-27T06:28:56.772Z,2.70
2018-09-27T06:29:56.797Z,2.60
2018-09-27T06:30:56.811Z,2.70
2018-09-27T06:31:56.838Z,2.70
2018-09-27T06:32:56.864Z,2.90
2018-09-27T06:33:56.876Z,2.50
2018-09-27T06:34:56.920Z,2.60
2018-09-27T06:35:56.916Z,2.70
2018-09-27T06:36:56.942Z,2.70
2018-09-27T06:37:56.973Z,2.40
2018-09-27T06:38:56.983Z,2.70
2018-09-27T06:39:57.009Z,2.40
2018-09-27T06:40:57.021Z,2.50
2018-09-27T06:41:57.050Z,2.70
2018-09-27T06:42:57.073Z,2.50
2018-09-27T06:43:57.085Z,2.70
2018-09-27T06:44:57.112Z,2.80
2018-09-27T06:45:57.137Z,2.70
2018-09-27T06:46:57.152Z,2.60
2018-09-27T06:47:57.178Z,2.50
2018-09-27T06:48:57.192Z,2.30
2018-09-27T06:49:57.218Z,2.70
2018-09-27T06:50:57.231Z,3.10
2018-09-27T06:51:57.265Z,2.50
2018-09-27T06:52:57.284Z,2.60
2018-09-27T06:53:57.296Z,2.80
2018-09-27T06:54:57.364Z,2.60
2018-09-27T06:55:57.505Z,2.70
2018-09-27T06:56:57.362Z,2.90
2018-09-27T06:57:57.388Z,2.80
2018-09-27T06:58:57.401Z,2.80
2018-09-27T06:59:57.426Z,2.80
2018-09-27T07:00:57.488Z,2.40
2018-09-27T07:01:57.467Z,3.10
2018-09-27T07:02:57.493Z,2.70
2018-09-27T07:03:57.505Z,2.90
2018-09-27T07:04:57.568Z,3.20
2018-09-27T07:05:57.557Z,2.50
2018-09-27T07:06:57.572Z,2.60
2018-09-27T07:07:57.597Z,2.60
2018-09-27T07:08:57.623Z,2.90
2018-09-27T07:09:57.636Z,2.80
2018-09-27T07:10:57.662Z,3.00
2018-09-27T07:11:57.698Z,2.70
2018-09-27T07:12:57.703Z,2.60
2018-09-27T07:13:57.732Z,2.80
2018-09-27T07:14:57.755Z,2.70
2018-09-27T07:15:57.768Z,2.70
2018-09-27T07:16:57.793Z,3.20
2018-09-27T07:17:57.807Z,2.60
2018-09-27T07:18:57.834Z,2.60
2018-09-27T07:19:57.847Z,2.50
2018-09-27T07:20:57.872Z,2.80
2018-09-27T07:21:57.914Z,2.20
2018-09-27T07:22:57.913Z,3.10
2018-09-27T07:23:57.939Z,2.90
2018-09-27T07:24:57.992Z,2.80
2018-09-27T07:25:57.978Z,2.80
2018-09-27T07:26:58.038Z,2.60
2018-09-27T07:27:58.043Z,3.00
2018-09-27T07:28:58.044Z,2.70
2018-09-27T07:29:58.069Z,3.00
2018-09-27T07:30:58.121Z,3.00
2018-09-27T07:31:58.107Z,2.80
2018-09-27T07:32:58.133Z,2.70
2018-09-27T07:33:58.160Z,2.40
2018-09-27T07:34:58.174Z,2.90
2018-09-27T07:35:58.200Z,3.20
2018-09-27T07:36:58.226Z,2.40
2018-09-27T07:37:58.242Z,2.70
2018-09-27T07:38:58.265Z,3.20
2018-09-27T07:39:58.290Z,2.50
2018-09-27T07:40:58.305Z,2.50
2018-09-27T07:41:58.330Z,3.20
2018-09-27T07:42:58.357Z,2.70
2018-09-27T07:43:58.369Z,2.80
2018-09-27T07:44:58.395Z,2.60
2018-09-27T07:45:58.424Z,2.70
2018-09-27T07:46:58.435Z,2.60
2018-09-27T07:47:58.464Z,2.60
2018-09-27T07:48:58.487Z,3.10
2018-09-27T07:49:58.501Z,2.90
2018-09-27T07:50:58.526Z,2.70
2018-09-27T07:51:58.553Z,2.40
2018-09-27T07:52:58.579Z,2.70
2018-09-27T07:53:58.592Z,2.80
2018-09-27T07:54:58.619Z,2.70
2018-09-27T07:55:58.645Z,3.00
2018-09-27T07:56:58.658Z,3.10
2018-09-27T07:57:58.684Z,3.00
2018-09-27T07:58:58.710Z,2.50
2018-09-27T07:59:58.724Z,2.50
2018-09-27T08:00:58.750Z,2.70
2018-09-27T08:01:58.775Z,2.80
2018-09-27T08:02:58.871Z,2.90
2018-09-27T08:03:58.847Z,3.00
2018-09-27T08:04:58.842Z,2.50
2018-09-27T08:05:58.867Z,3.20
2018-09-27T08:06:58.892Z,2.80
2018-09-27T08:07:58.907Z,3.10
2018-09-27T08:08:58.933Z,2.90
2018-09-27T08:09:58.958Z,3.40
2018-09-27T08:10:59.004Z,2.80
2018-09-27T08:11:59.092Z,3.10
2018-09-27T08:12:59.024Z,3.00
2018-09-27T08:13:59.049Z,3.60
2018-09-27T08:14:59.075Z,3.10
2018-09-27T08:15:59.102Z,2.80
2018-09-27T08:16:59.189Z,3.30
2018-09-27T08:17:59.141Z,3.10
2018-09-27T08:18:59.167Z,3.30
2018-09-27T08:19:59.195Z,3.10
2018-09-27T08:20:59.306Z,2.70
2018-09-27T08:21:59.231Z,3.10
2018-09-27T08:22:59.258Z,3.20
2018-09-27T08:23:59.327Z,3.30
2018-09-27T08:24:59.298Z,2.80
2018-09-27T08:25:59.324Z,3.00
2018-09-27T08:26:59.353Z,2.70
2018-09-27T08:27:59.376Z,3.30
2018-09-27T08:28:59.389Z,2.70
2018-09-27T08:29:59.415Z,2.90
2018-09-27T08:30:59.515Z,3.30
2018-09-27T08:31:59.468Z,3.30
2018-09-27T08:32:59.484Z,3.20
2018-09-27T08:33:59.509Z,3.60
2018-09-27T08:34:59.535Z,3.20
2018-09-27T08:35:59.549Z,3.20
2018-09-27T08:36:59.576Z,3.00
2018-09-27T08:37:59.598Z,3.10
2018-09-27T08:38:59.624Z,3.00
2018-09-27T08:39:59.639Z,3.00
2018-09-27T08:40:59.667Z,3.00
2018-09-27T08:41:59.690Z,2.90
2018-09-27T08:42:59.702Z,2.90
2018-09-27T08:43:59.729Z,3.60
2018-09-27T08:44:59.908Z,3.50
2018-09-27T08:45:59.774Z,3.70
2018-09-27T08:46:59.796Z,3.50
2018-09-27T08:47:59.822Z,3.10
2018-09-27T08:48:59.836Z,3.60
2018-09-27T08:49:59.860Z,3.20
2018-09-27T08:50:59.887Z,3.30
2018-09-27T08:51:59.914Z,3.40
2018-09-27T08:52:59.937Z,3.20
2018-09-27T08:53:59.952Z,3.40
2018-09-27T08:54:59.977Z,3.20
2018-09-27T08:56:00.077Z,3.30
2018-09-27T08:57:00.017Z,3.20
2018-09-27T08:58:00.043Z,3.40
2018-09-27T08:59:00.060Z,3.90
2018-09-27T09:00:00.084Z,3.10
2018-09-27T09:01:00.109Z,3.10
2018-09-27T09:02:00.123Z,3.30
2018-09-27T09:03:00.149Z,3.30
2018-09-27T09:04:00.220Z,2.80
2018-09-27T09:05:00.188Z,3.20
2018-09-27T09:06:00.213Z,3.00
2018-09-27T09:07:00.242Z,2.90
2018-09-27T09:08:00.254Z,3.00
2018-09-27T09:09:00.284Z,3.00
2018-09-27T09:10:00.308Z,3.00
2018-09-27T09:11:00.319Z,3.50
2018-09-27T09:12:00.363Z,2.60
2018-09-27T09:13:00.372Z,3.20
2018-09-27T09:14:00.383Z,3.00
2018-09-27T09:15:00.411Z,3.00
2018-09-27T09:16:00.436Z,3.20
2018-09-27T09:17:00.450Z,2.80
2018-09-27T09:18:00.475Z,3.10
2018-09-27T09:19:00.504Z,3.10
2018-09-27T09:20:00.515Z,2.80
2018-09-27T09:21:00.554Z,3.10
2018-09-27T09:22:00.566Z,3.50
2018-09-27T09:23:00.580Z,2.80
2018-09-27T09:24:00.607Z,2.70
2018-09-27T09:25:00.632Z,2.90
2018-09-27T09:26:00.715Z,3.40
2018-09-27T09:27:00.671Z,2.90
2018-09-27T09:28:00.701Z,2.90
2018-09-27T09:29:00.712Z,2.70
2018-09-27T09:30:00.801Z,2.80
2018-09-27T09:31:00.763Z,2.70
2018-09-27T09:32:00.777Z,2.70
2018-09-27T09:33:00.803Z,2.60
2018-09-27T09:34:00.841Z,2.70
2018-09-27T09:35:00.843Z,2.30
2018-09-27T09:36:00.927Z,2.30
2018-09-27T09:37:00.894Z,2.40
2018-09-27T09:38:00.920Z,2.20
2018-09-27T09:39:00.933Z,3.00
2018-09-27T09:40:00.958Z,2.70
2018-09-27T09:41:00.998Z,2.50
2018-09-27T09:42:00.999Z,2.70
2018-09-27T09:43:01.026Z,2.70
2018-09-27T09:44:01.051Z,2.60
2018-09-27T09:45:01.066Z,2.40
2018-09-27T09:46:01.090Z,2.70
2018-09-27T09:47:01.115Z,2.50
2018-09-27T09:48:01.141Z,2.10
2018-09-27T09:49:01.157Z,2.30
2018-09-27T09:50:01.256Z,2.60
2018-09-27T09:51:01.208Z,5.40
2018-09-27T09:52:01.234Z,4.80
2018-09-27T09:53:01.249Z,3.90
2018-09-27T09:54:01.287Z,2.50
2018-09-27T09:55:01.298Z,2.30
2018-09-27T09:56:01.325Z,2.50
2018-09-27T09:57:01.340Z,2.40
2018-09-27T09:58:01.364Z,2.50
2018-09-27T09:59:01.391Z,2.40
2018-09-27T10:00:01.405Z,2.50
2018-09-27T10:01:01.429Z,2.50
2018-09-27T10:02:01.454Z,2.10
2018-09-27T10:03:01.481Z,2.40
2018-09-27T10:04:01.520Z,2.20
2018-09-27T10:05:01.522Z,2.40
2018-09-27T10:06:01.547Z,2.40
2018-09-27T10:07:01.573Z,2.30
2018-09-27T10:08:01.600Z,2.60
2018-09-27T10:09:01.672Z,2.30
2018-09-27T10:10:01.637Z,2.10
2018-09-27T10:11:01.667Z,2.50
2018-09-27T10:12:01.692Z,2.50
2018-09-27T10:13:01.715Z,2.60
2018-09-27T10:14:01.741Z,2.30
2018-09-27T10:15:01.756Z,2.90
2018-09-27T10:16:01.783Z,2.30
2018-09-27T10:17:01.808Z,2.20
2018-09-27T10:18:01.839Z,2.80
2018-09-27T10:19:01.849Z,2.30
2018-09-27T10:20:01.874Z,2.00
2018-09-27T10:21:01.899Z,2.50
2018-09-27T10:22:01.942Z,2.10
2018-09-27T10:23:01.952Z,2.10
2018-09-27T10:24:01.985Z,2.20
2018-09-27T10:25:01.993Z,2.20
2018-09-27T10:26:02.017Z,2.50
2018-09-27T10:27:02.042Z,2.30
2018-09-27T10:28:02.069Z,2.30
2018-09-27T10:29:02.095Z,2.40
2018-09-27T10:30:02.125Z,2.40
2018-09-27T10:31:02.146Z,2.60
2018-09-27T10:32:02.160Z,2.00
2018-09-27T10:33:02.186Z,2.20
2018-09-27T10:34:02.221Z,2.20
2018-09-27T10:35:02.237Z,2.20
2018-09-27T10:36:02.271Z,2.10
2018-09-27T10:37:02.290Z,2.10
2018-09-27T10:38:02.315Z,2.40
2018-09-27T10:39:02.353Z,2.30
2018-09-27T10:40:02.366Z,8.50
2018-09-27T10:41:02.392Z,4.60
2018-09-27T10:42:02.407Z,4.60
2018-09-27T10:43:02.433Z,2.70
2018-09-27T10:44:02.458Z,2.20
2018-09-27T10:45:02.513Z,2.10
2018-09-27T10:46:02.510Z,2.10
2018-09-27T10:47:02.542Z,1.90
2018-09-27T10:48:02.562Z,2.10
2018-09-27T10:49:02.588Z,1.90
2018-09-27T10:50:02.614Z,1.80
2018-09-27T10:51:02.628Z,1.60
2018-09-27T10:52:02.655Z,1.80
2018-09-27T10:53:02.679Z,2.00
2018-09-27T10:54:02.706Z,2.10
2018-09-27T10:55:02.744Z,1.70
2018-09-27T10:56:02.758Z,1.60
2018-09-27T10:57:02.787Z,1.40
2018-09-27T10:58:02.809Z,1.60
2018-09-27T10:59:02.838Z,1.20
2018-09-27T11:00:02.868Z,1.50
2018-09-27T11:01:02.876Z,1.40
2018-09-27T11:02:02.901Z,1.40
2018-09-27T11:03:02.940Z,1.20
2018-09-27T11:04:03.006Z,1.20
2018-09-27T11:05:02.979Z,1.40
2018-09-27T11:06:03.004Z,1.20
2018-09-27T11:07:03.031Z,1.10
2018-09-27T11:08:03.062Z,1.30
2018-09-27T11:09:03.082Z,1.30
2018-09-27T11:10:03.109Z,1.20
2018-09-27T11:11:03.194Z,1.50
2018-09-27T11:12:03.161Z,1.30
2018-09-27T11:13:03.186Z,1.20
2018-09-27T11:14:03.200Z,1.60
2018-09-27T11:15:03.225Z,1.50
2018-09-27T11:16:03.264Z,1.40
2018-09-27T11:17:03.276Z,1.20
2018-09-27T11:18:03.303Z,1.30
2018-09-27T11:19:03.331Z,1.70
2018-09-27T11:20:03.357Z,1.50
2018-09-27T11:21:03.382Z,2.00
2018-09-27T11:22:03.412Z,1.50
2018-09-27T11:23:03.432Z,1.60
2018-09-27T11:24:03.458Z,1.10
2018-09-27T11:25:03.484Z,1.10
2018-09-27T11:26:03.511Z,1.30
2018-09-27T11:27:03.524Z,1.30
2018-09-27T11:28:03.558Z,1.60
2018-09-27T11:29:03.646Z,1.30
2018-09-27T11:30:03.606Z,1.30
2018-09-27T11:31:03.629Z,1.30
2018-09-27T11:32:03.655Z,1.20
2018-09-27T11:33:03.693Z,1.90
2018-09-27T11:34:03.707Z,1.20
2018-09-27T11:35:03.733Z,1.40
2018-09-27T11:36:03.758Z,1.20
2018-09-27T11:37:03.784Z,1.20
2018-09-27T11:38:03.814Z,1.40
2018-09-27T11:39:03.837Z,1.10
2018-09-27T11:40:03.863Z,1.30
2018-09-27T11:41:03.889Z,1.20
2018-09-27T11:42:03.914Z,1.10
2018-09-27T11:43:03.927Z,1.40
2018-09-27T11:44:03.994Z,1.30
2018-09-27T11:45:03.979Z,1.60
2018-09-27T11:46:04.005Z,1.30
2018-09-27T11:47:04.033Z,1.40
2018-09-27T11:48:04.057Z,1.30
2018-09-27T11:49:04.181Z,1.50
2018-09-27T11:50:04.133Z,1.40
2018-09-27T11:51:04.138Z,1.60
2018-09-27T11:52:04.161Z,1.50
2018-09-27T11:53:04.187Z,1.80
2018-09-27T11:54:04.213Z,1.40
2018-09-27T11:55:04.299Z,1.70
2018-09-27T11:56:04.264Z,1.40
2018-09-27T11:57:04.278Z,1.30
2018-09-27T11:58:04.305Z,1.50
2018-09-27T11:59:04.351Z,1.60
2018-09-27T12:00:04.357Z,1.40
2018-09-27T12:01:04.382Z,1.40
2018-09-27T12:02:04.408Z,1.30
2018-09-27T12:03:04.436Z,1.40
2018-09-27T12:04:04.460Z,1.80
2018-09-27T12:05:04.487Z,1.50
2018-09-27T12:06:04.500Z,1.80
2018-09-27T12:07:04.526Z,1.40
2018-09-27T12:08:04.551Z,1.30
2018-09-27T12:09:04.579Z,1.30
2018-09-27T12:10:04.602Z,1.30
2018-09-27T12:11:04.629Z,1.40
2018-09-27T12:12:04.723Z,1.30
2018-09-27T12:13:04.685Z,1.30
2018-09-27T12:14:04.728Z,1.30
2018-09-27T12:15:04.758Z,1.50
2018-09-27T12:16:04.758Z,1.70
2018-09-27T12:17:04.784Z,1.90
2018-09-27T12:18:04.803Z,1.60
2018-09-27T12:19:04.828Z,1.60
2018-09-27T12:20:04.902Z,1.80
2018-09-27T12:21:04.877Z,1.40
2018-09-27T12:22:04.903Z,1.70
2018-09-27T12:23:05.007Z,1.60
2018-09-27T12:24:04.953Z,1.50
2018-09-27T12:25:04.980Z,1.90
2018-09-27T12:26:05.014Z,1.90
2018-09-27T12:27:05.032Z,1.90
2018-09-27T12:28:05.051Z,2.00
2018-09-27T12:29:05.070Z,2.10
2018-09-27T12:30:05.096Z,1.90
2018-09-27T12:31:05.142Z,2.10
2018-09-27T12:32:05.148Z,2.20
2018-09-27T12:33:05.174Z,2.90
2018-09-27T12:34:05.231Z,2.40
2018-09-27T12:35:05.227Z,2.10
2018-09-27T12:36:05.266Z,2.00
2018-09-27T12:37:05.278Z,2.30
2018-09-27T12:38:05.304Z,2.30
2018-09-27T12:39:05.319Z,2.10
2018-09-27T12:40:05.345Z,2.30
2018-09-27T12:41:05.370Z,2.20
2018-09-27T12:42:05.498Z,2.10
2018-09-27T12:43:05.423Z,2.00
2018-09-27T12:44:05.450Z,1.80
2018-09-27T12:45:05.566Z,1.70
2018-09-27T12:46:05.622Z,1.90
2018-09-27T12:47:05.525Z,1.80
2018-09-27T12:48:05.614Z,1.90
2018-09-27T12:49:05.581Z,1.70
2018-09-27T12:50:05.591Z,1.80
2018-09-27T12:51:05.648Z,1.80
2018-09-27T12:52:05.825Z,1.90
2018-09-27T12:53:05.770Z,1.70
2018-09-27T12:54:05.700Z,1.40
2018-09-27T12:55:05.720Z,1.70
2018-09-27T12:56:05.784Z,1.70
2018-09-27T12:57:05.804Z,1.70
2018-09-27T12:58:05.797Z,1.40
2018-09-27T12:59:05.824Z,1.60
2018-09-27T13:00:05.849Z,1.60
2018-09-27T13:01:05.901Z,1.70
2018-09-27T13:02:06.072Z,1.90
2018-09-27T13:03:05.915Z,1.50
2018-09-27T13:04:06.015Z,1.90
2018-09-27T13:05:05.968Z,1.60
2018-09-27T13:06:05.994Z,1.70
2018-09-27T13:07:06.068Z,1.50
2018-09-27T13:08:06.045Z,1.60
2018-09-27T13:09:06.117Z,1.80
2018-09-27T13:10:06.151Z,1.70
2018-09-27T13:11:06.110Z,1.80
2018-09-27T13:12:06.153Z,2.00
2018-09-27T13:13:06.218Z,1.80
2018-09-27T13:14:06.195Z,2.20
2018-09-27T13:15:06.244Z,1.60
2018-09-27T13:16:06.328Z,1.70
2018-09-27T13:17:06.276Z,1.70
2018-09-27T13:18:06.292Z,1.50
2018-09-27T13:19:06.388Z,1.80